Time;durP1;ratioP1;P1;durP2;ratioP2;P2;SDS_P1;SDS_P2;PMS_P1;PMS_P2;Temp;Humidity;BMP_temperature;BMP_pressure;BME280_temperature;BME280_humidity;BME280_pressure;Samples;Min_cycle;Max_cycle;Signal;HPM_P1;HPM_P2
2023/10/05 00:02:08;;;;;;;;;;;12.80;99.90;;;;;;2617905;46;19947;-77
2023/10/05 00:04:44;;;;;;;;;;;12.80;99.90;;;;;;2617707;47;20036;-77
2023/10/05 00:07:19;;;;;;;;;;;12.90;99.90;;;;;;2617654;54;19998;-77
2023/10/05 00:09:47;;;;;;;;;;;12.90;99.90;;;;;;2617156;54;19950;-77
2023/10/05 00:12:22;;;;;;;;;;;12.90;99.90;;;;;;2617770;54;19946;-76
2023/10/05 00:15:08;;;;;;;;;;;12.90;99.90;;;;;;2617621;54;19962;-77
2023/10/05 00:17:41;;;;;;;;;;;12.90;99.90;;;;;;2617884;54;19957;-77
2023/10/05 00:20:15;;;;;;;;;;;12.90;99.90;;;;;;2617657;47;19946;-76
2023/10/05 00:22:45;;;;;;;;;;;12.90;99.90;;;;;;2617429;54;20064;-77
2023/10/05 00:25:15;;;;;;;;;;;13.00;99.90;;;;;;2617369;47;19947;-77
2023/10/05 00:27:51;;;;;;;;;;;13.20;99.90;;;;;;2617419;47;19939;-76
2023/10/05 00:30:21;;;;;;;;;;;13.00;99.90;;;;;;2617426;54;19971;-77
2023/10/05 00:32:59;;;;;;;;;;;13.00;99.90;;;;;;2617588;50;19946;-76
2023/10/05 00:35:33;;;;;;;;;;;13.00;99.90;;;;;;2617508;47;19946;-78
2023/10/05 00:38:11;;;;;;;;;;;13.00;99.90;;;;;;2617787;39;20372;-76
2023/10/05 00:40:49;;;;;;;;;;;13.00;99.90;;;;;;2617545;46;19939;-75
2023/10/05 00:43:24;;;;;;;;;;;13.30;99.90;;;;;;2617882;54;20491;-76
2023/10/05 00:45:56;;;;;;;;;;;13.00;99.90;;;;;;2621278;47;19995;-77
2023/10/05 00:48:34;;;;;;;;;;;13.00;99.90;;;;;;2621563;47;19947;-77
2023/10/05 00:51:09;;;;;;;;;;;13.00;99.90;;;;;;2618266;54;19958;-76
2023/10/05 00:53:39;;;;;;;;;;;13.00;99.90;;;;;;2617299;47;20436;-77
2023/10/05 00:56:12;;;;;;;;;;;13.00;99.90;;;;;;2617407;54;19946;-77
2023/10/05 00:58:46;;;;;;;;;;;13.00;99.90;;;;;;2619044;54;19995;-76
2023/10/05 01:01:23;;;;;;;;;;;13.00;99.90;;;;;;2620790;47;19945;-75
2023/10/05 01:04:18;;;;;;;;;;;13.00;99.90;;;;;;2617479;54;19957;-75
2023/10/05 01:06:55;;;;;;;;;;;13.00;99.90;;;;;;2617428;54;19939;-76
2023/10/05 01:09:44;;;;;;;;;;;13.10;99.90;;;;;;2617464;47;19962;-76
2023/10/05 01:12:25;;;;;;;;;;;13.00;99.90;;;;;;2619475;54;19938;-77
2023/10/05 01:14:58;;;;;;;;;;;13.00;99.90;;;;;;2618256;54;19955;-77
2023/10/05 01:17:30;;;;;;;;;;;13.00;99.90;;;;;;2617493;46;19969;-77
2023/10/05 01:20:08;;;;;;;;;;;13.00;99.90;;;;;;2617554;54;19945;-77
2023/10/05 01:22:39;;;;;;;;;;;13.00;99.90;;;;;;2617437;47;19969;-77
2023/10/05 01:25:13;;;;;;;;;;;13.00;99.90;;;;;;2616920;54;19970;-78
2023/10/05 01:27:45;;;;;;;;;;;13.00;99.90;;;;;;2616909;47;20009;-76
2023/10/05 01:30:15;;;;;;;;;;;13.00;99.90;;;;;;2617479;47;20482;-76
2023/10/05 01:32:46;;;;;;;;;;;13.00;99.90;;;;;;2619552;47;20063;-76
2023/10/05 01:35:17;;;;;;;;;;;13.00;99.90;;;;;;2620129;47;19946;-77
2023/10/05 01:37:51;;;;;;;;;;;13.00;99.90;;;;;;2617422;47;19946;-75
2023/10/05 01:40:30;;;;;;;;;;;13.00;99.90;;;;;;2617413;47;20439;-75
2023/10/05 01:43:01;;;;;;;;;;;13.00;99.90;;;;;;2617202;54;19958;-77
2023/10/05 01:45:34;;;;;;;;;;;13.00;99.90;;;;;;2617663;39;20652;-76
2023/10/05 01:48:05;;;;;;;;;;;13.00;99.90;;;;;;2617377;54;20415;-75
2023/10/05 01:50:35;;;;;;;;;;;13.00;99.90;;;;;;2617195;47;19946;-78
2023/10/05 01:53:07;;;;;;;;;;;13.00;99.90;;;;;;2617356;54;19953;-77
2023/10/05 01:55:41;;;;;;;;;;;13.00;99.90;;;;;;2614807;54;20383;-74
2023/10/05 01:58:13;;;;;;;;;;;13.00;99.90;;;;;;2617568;46;19954;-72
2023/10/05 02:00:44;;;;;;;;;;;13.10;99.90;;;;;;2616724;54;19947;-72
2023/10/05 02:03:14;;;;;;;;;;;13.00;99.90;;;;;;2617491;54;19958;-72
2023/10/05 02:05:44;;;;;;;;;;;13.00;99.90;;;;;;2618059;47;19943;-72
2023/10/05 02:08:14;;;;;;;;;;;13.00;99.90;;;;;;2619544;39;20360;-72
2023/10/05 02:10:47;;;;;;;;;;;13.00;99.90;;;;;;2617329;54;19946;-72
2023/10/05 02:13:17;;;;;;;;;;;13.00;99.90;;;;;;2618159;39;20452;-71
2023/10/05 02:15:49;;;;;;;;;;;13.00;99.90;;;;;;2617472;54;19971;-72
2023/10/05 02:18:23;;;;;;;;;;;13.00;99.90;;;;;;2617772;39;20333;-72
2023/10/05 02:20:56;;;;;;;;;;;13.00;99.90;;;;;;2619645;39;20329;-72
2023/10/05 02:23:29;;;;;;;;;;;13.00;99.90;;;;;;2619938;47;19939;-72
2023/10/05 02:26:09;;;;;;;;;;;13.00;99.90;;;;;;2619613;54;19939;-72
2023/10/05 02:28:40;;;;;;;;;;;13.00;99.90;;;;;;2620255;47;19939;-72
2023/10/05 02:31:12;;;;;;;;;;;13.00;99.90;;;;;;2616714;54;19960;-72
2023/10/05 02:33:44;;;;;;;;;;;13.00;99.90;;;;;;2616449;54;19947;-72
2023/10/05 02:36:20;;;;;;;;;;;13.00;99.90;;;;;;2618123;54;19950;-73
2023/10/05 02:38:53;;;;;;;;;;;13.00;99.90;;;;;;2618294;54;19991;-72
2023/10/05 02:41:37;;;;;;;;;;;13.20;99.90;;;;;;2618133;47;19950;-73
2023/10/05 02:44:23;;;;;;;;;;;13.00;99.90;;;;;;2617806;54;19938;-72
2023/10/05 02:46:52;;;;;;;;;;;13.00;99.90;;;;;;2617751;54;19981;-72
2023/10/05 02:49:23;;;;;;;;;;;12.90;99.90;;;;;;2618358;54;19946;-72
2023/10/05 02:51:54;;;;;;;;;;;12.90;99.90;;;;;;2617879;54;19958;-72
2023/10/05 02:54:25;;;;;;;;;;;12.90;99.90;;;;;;2618112;54;20471;-72
2023/10/05 02:56:57;;;;;;;;;;;12.90;99.90;;;;;;2618697;54;19965;-72
2023/10/05 02:59:29;;;;;;;;;;;12.90;99.90;;;;;;2618620;39;20341;-72
2023/10/05 03:02:07;;;;;;;;;;;12.90;99.90;;;;;;2617281;39;20380;-72
2023/10/05 03:04:57;;;;;;;;;;;12.80;99.90;;;;;;2618999;39;20353;-73
2023/10/05 03:07:27;;;;;;;;;;;12.80;99.90;;;;;;2617760;54;20010;-73
2023/10/05 03:09:59;;;;;;;;;;;12.90;99.90;;;;;;2617780;54;19953;-72
2023/10/05 03:12:32;;;;;;;;;;;12.90;99.90;;;;;;2618016;54;19946;-72
2023/10/05 03:15:05;;;;;;;;;;;12.90;99.90;;;;;;2617215;54;19947;-73
2023/10/05 03:17:36;;;;;;;;;;;12.80;99.90;;;;;;2618242;47;19946;-73
2023/10/05 03:20:09;;;;;;;;;;;12.90;99.90;;;;;;2618079;50;19950;-72
2023/10/05 03:22:39;;;;;;;;;;;12.90;99.90;;;;;;2617995;54;19993;-73
2023/10/05 03:25:12;;;;;;;;;;;12.80;99.90;;;;;;2618633;39;20334;-72
2023/10/05 03:27:46;;;;;;;;;;;12.80;99.90;;;;;;2618350;54;20452;-72
2023/10/05 03:30:16;;;;;;;;;;;12.90;99.90;;;;;;2617940;39;20414;-73
2023/10/05 03:32:48;;;;;;;;;;;12.90;99.90;;;;;;2618084;54;19953;-72
2023/10/05 03:35:22;;;;;;;;;;;12.90;99.90;;;;;;2618528;54;20454;-72
2023/10/05 03:37:53;;;;;;;;;;;12.90;99.90;;;;;;2618071;54;19938;-72
2023/10/05 03:40:25;;;;;;;;;;;12.90;99.90;;;;;;2617973;54;19947;-73
2023/10/05 05:33:30;;;;;;;;;;;12.90;99.90;;;;;;2628063;46;20170;-81
2023/10/05 05:36:05;;;;;;;;;;;13.50;99.90;;;;;;2628130;47;19950;-83
2023/10/05 05:38:35;;;;;;;;;;;12.80;99.90;;;;;;2627944;54;19943;-80
2023/10/05 05:41:11;;;;;;;;;;;12.80;99.90;;;;;;2626809;47;19942;-75
2023/10/05 05:43:42;;;;;;;;;;;12.80;99.90;;;;;;2619791;39;20469;-76
2023/10/05 05:46:13;;;;;;;;;;;12.80;99.90;;;;;;2618863;54;20376;-77
2023/10/05 05:48:48;;;;;;;;;;;12.80;99.90;;;;;;2620093;47;19946;-75
2023/10/05 05:51:24;;;;;;;;;;;12.80;99.90;;;;;;2617737;54;20038;-75
2023/10/05 05:53:54;;;;;;;;;;;12.70;99.90;;;;;;2617809;54;19946;-74
2023/10/05 05:56:28;;;;;;;;;;;12.80;99.90;;;;;;2618788;47;19998;-75
2023/10/05 05:59:00;;;;;;;;;;;12.80;99.90;;;;;;2618853;47;19966;-75
2023/10/05 06:01:32;;;;;;;;;;;12.80;99.90;;;;;;2617945;39;20038;-75
2023/10/05 06:04:05;;;;;;;;;;;12.80;99.90;;;;;;2619988;47;19946;-76
2023/10/05 06:06:37;;;;;;;;;;;12.80;99.90;;;;;;2622934;47;19957;-79
2023/10/05 06:09:07;;;;;;;;;;;12.80;99.90;;;;;;2618730;47;20446;-73
2023/10/05 06:11:37;;;;;;;;;;;12.80;99.90;;;;;;2618443;47;19967;-74
2023/10/05 06:14:07;;;;;;;;;;;12.80;99.90;;;;;;2620134;47;20030;-73
2023/10/05 06:16:37;;;;;;;;;;;12.80;99.90;;;;;;2618310;47;20034;-74
2023/10/05 06:19:11;;;;;;;;;;;12.80;99.90;;;;;;2617048;47;19946;-74
2023/10/05 06:21:42;;;;;;;;;;;12.70;99.90;;;;;;2611125;54;19946;-74
2023/10/05 06:24:11;;;;;;;;;;;12.80;99.90;;;;;;2612442;54;19954;-74
2023/10/05 06:26:42;;;;;;;;;;;12.70;99.90;;;;;;2612663;47;20488;-74
2023/10/05 06:29:13;;;;;;;;;;;12.80;99.90;;;;;;2612662;54;19947;-74
2023/10/05 06:31:43;;;;;;;;;;;12.80;99.90;;;;;;2612382;54;20034;-73
2023/10/05 06:34:16;;;;;;;;;;;12.80;99.90;;;;;;2613158;54;19947;-75
2023/10/05 06:36:47;;;;;;;;;;;12.90;99.90;;;;;;2611618;47;19946;-74
2023/10/05 06:39:17;;;;;;;;;;;12.90;99.90;;;;;;2612764;54;19963;-74
2023/10/05 06:41:57;;;;;;;;;;;13.00;99.90;;;;;;2611484;47;19950;-74
2023/10/05 06:44:26;;;;;;;;;;;12.90;99.90;;;;;;2612683;54;19971;-74
2023/10/05 06:46:56;;;;;;;;;;;13.00;99.90;;;;;;2612917;39;20320;-74
2023/10/05 06:49:30;;;;;;;;;;;13.00;99.90;;;;;;2613718;49;19957;-75
2023/10/05 06:52:00;;;;;;;;;;;13.10;99.90;;;;;;2613026;54;19947;-74
2023/10/05 06:54:30;;;;;;;;;;;13.10;99.90;;;;;;2614067;54;19950;-76
2023/10/05 06:57:00;;;;;;;;;;;13.20;99.90;;;;;;2612951;50;19947;-75
2023/10/05 06:59:31;;;;;;;;;;;13.30;99.90;;;;;;2614367;54;20083;-76
2023/10/05 07:02:02;;;;;;;;;;;13.30;99.90;;;;;;2613571;54;20771;-75
2023/10/05 07:04:35;;;;;;;;;;;13.40;99.90;;;;;;2614109;47;19946;-74
2023/10/05 07:07:05;;;;;;;;;;;13.40;99.90;;;;;;2614239;47;21014;-74
2023/10/05 07:09:35;;;;;;;;;;;13.40;99.90;;;;;;2614418;54;20558;-75
2023/10/05 07:12:05;;;;;;;;;;;13.40;99.90;;;;;;2614763;47;19954;-74
2023/10/05 07:14:36;;;;;;;;;;;13.40;99.90;;;;;;2615304;47;19938;-74
2023/10/05 07:17:06;;;;;;;;;;;13.40;99.90;;;;;;2615012;54;19946;-74
2023/10/05 07:19:38;;;;;;;;;;;13.00;99.90;;;;;;2618542;47;20456;-75
2023/10/05 07:22:09;;;;;;;;;;;13.50;99.90;;;;;;2617975;47;19945;-74
2023/10/05 07:24:39;;;;;;;;;;;13.50;99.90;;;;;;2616171;39;20428;-74
2023/10/05 07:27:09;;;;;;;;;;;13.50;99.90;;;;;;2615169;47;19950;-75
2023/10/05 07:29:44;;;;;;;;;;;13.60;99.90;;;;;;2615221;54;19950;-74
2023/10/05 07:32:14;;;;;;;;;;;13.60;99.90;;;;;;2614088;54;19992;-75
2023/10/05 07:34:47;;;;;;;;;;;13.60;99.90;;;;;;2615374;47;19946;-74
2023/10/05 07:37:19;;;;;;;;;;;13.70;99.90;;;;;;2614033;51;19950;-74
2023/10/05 07:39:51;;;;;;;;;;;13.70;99.90;;;;;;2614839;39;20483;-74
2023/10/05 07:42:20;;;;;;;;;;;13.70;99.90;;;;;;2617409;54;19946;-75
2023/10/05 07:44:50;;;;;;;;;;;13.70;99.90;;;;;;2617823;47;20662;-75
2023/10/05 07:47:21;;;;;;;;;;;13.70;99.90;;;;;;2616460;47;20459;-75
2023/10/05 07:49:53;;;;;;;;;;;13.70;99.90;;;;;;2616525;47;19999;-75
2023/10/05 07:52:23;;;;;;;;;;;13.70;99.90;;;;;;2616327;47;19951;-76
2023/10/05 07:54:54;;;;;;;;;;;13.80;99.90;;;;;;2611813;54;20814;-71
2023/10/05 07:57:24;;;;;;;;;;;13.90;99.90;;;;;;2605239;54;19950;-70
2023/10/05 07:59:54;;;;;;;;;;;14.00;99.90;;;;;;2606340;47;20454;-69
2023/10/05 08:02:23;;;;;;;;;;;14.00;99.90;;;;;;2605492;54;20492;-69
2023/10/05 08:04:56;;;;;;;;;;;14.00;99.90;;;;;;2605765;47;19963;-71
2023/10/05 08:07:26;;;;;;;;;;;14.00;99.90;;;;;;2605467;54;19958;-71
2023/10/05 08:09:56;;;;;;;;;;;14.00;99.90;;;;;;2605523;54;19946;-70
2023/10/05 08:12:27;;;;;;;;;;;14.00;99.90;;;;;;2605333;47;19951;-71
2023/10/05 08:14:57;;;;;;;;;;;14.10;99.90;;;;;;2606314;39;20354;-71
2023/10/05 08:17:27;;;;;;;;;;;14.10;99.90;;;;;;2604969;54;20458;-71
2023/10/05 08:19:59;;;;;;;;;;;14.10;99.90;;;;;;2605748;54;19946;-71
2023/10/05 08:22:29;;;;;;;;;;;14.20;99.90;;;;;;2604841;46;19962;-71
2023/10/05 08:25:00;;;;;;;;;;;14.30;99.90;;;;;;2605528;54;21076;-70
2023/10/05 08:27:33;;;;;;;;;;;13.80;99.90;;;;;;2605665;54;19950;-71
2023/10/05 08:30:03;;;;;;;;;;;14.30;99.90;;;;;;2606548;47;19954;-78
2023/10/05 08:32:33;;;;;;;;;;;14.30;99.90;;;;;;2605898;39;20356;-74
2023/10/05 08:35:13;;;;;;;;;;;14.20;99.90;;;;;;2606868;47;19946;-74
2023/10/05 08:37:48;;;;;;;;;;;14.40;99.90;;;;;;2606461;39;20654;-75
2023/10/05 08:40:37;;;;;;;;;;;14.40;99.90;;;;;;2605826;39;20342;-75
2023/10/05 08:43:13;;;;;;;;;;;14.50;99.90;;;;;;2605722;47;19973;-74
2023/10/05 08:45:51;;;;;;;;;;;14.60;99.90;;;;;;2605237;54;19950;-74
2023/10/05 08:48:28;;;;;;;;;;;14.60;99.90;;;;;;2606065;39;20345;-74
2023/10/05 08:51:10;;;;;;;;;;;14.70;99.90;;;;;;2605488;47;19947;-76
2023/10/05 08:53:44;;;;;;;;;;;14.80;99.90;;;;;;2604618;47;19950;-75
2023/10/05 08:56:15;;;;;;;;;;;14.90;99.90;;;;;;2606088;47;19954;-77
2023/10/05 08:58:46;;;;;;;;;;;15.00;99.90;;;;;;2607503;47;19955;-76
2023/10/05 09:01:27;;;;;;;;;;;15.10;99.90;;;;;;2605763;47;19968;-76
2023/10/05 09:04:11;;;;;;;;;;;15.20;99.90;;;;;;2605342;47;20738;-74
2023/10/05 09:06:52;;;;;;;;;;;15.30;99.90;;;;;;2605493;54;19950;-75
2023/10/05 09:09:35;;;;;;;;;;;15.40;99.90;;;;;;2605701;47;19951;-75
2023/10/05 09:12:26;;;;;;;;;;;15.50;99.90;;;;;;2604278;47;19953;-78
2023/10/05 09:15:05;;;;;;;;;;;15.50;99.90;;;;;;2605700;54;19946;-76
2023/10/05 09:17:36;;;;;;;;;;;15.60;99.90;;;;;;2606095;54;19953;-75
2023/10/05 09:20:23;;;;;;;;;;;15.80;99.90;;;;;;2606121;47;19950;-76
2023/10/05 09:22:56;;;;;;;;;;;15.70;99.90;;;;;;2607616;47;19946;-75
2023/10/05 09:25:29;;;;;;;;;;;15.70;99.90;;;;;;2605662;54;19974;-75
2023/10/05 09:28:09;;;;;;;;;;;15.80;99.90;;;;;;2606215;39;20249;-74
2023/10/05 09:30:49;;;;;;;;;;;15.90;99.90;;;;;;2604481;47;19951;-77
2023/10/05 09:33:21;;;;;;;;;;;16.00;99.90;;;;;;2605810;54;19938;-75
2023/10/05 09:35:52;;;;;;;;;;;16.00;99.90;;;;;;2605770;39;20412;-74
2023/10/05 09:38:25;;;;;;;;;;;16.10;99.90;;;;;;2605530;54;19954;-76
2023/10/05 09:40:56;;;;;;;;;;;16.10;99.90;;;;;;2605243;47;19939;-76
2023/10/05 09:43:28;;;;;;;;;;;16.10;99.90;;;;;;2605907;46;19954;-78
2023/10/05 09:45:58;;;;;;;;;;;16.20;99.90;;;;;;2606860;39;20371;-74
2023/10/05 09:48:31;;;;;;;;;;;16.20;99.90;;;;;;2606580;39;20756;-76
2023/10/05 09:51:00;;;;;;;;;;;16.20;99.90;;;;;;2606041;51;19972;-74
2023/10/05 09:53:35;;;;;;;;;;;16.20;99.90;;;;;;2605830;47;19950;-74
2023/10/05 09:56:06;;;;;;;;;;;16.30;99.90;;;;;;2605355;54;19946;-73
2023/10/05 09:58:39;;;;;;;;;;;16.20;99.90;;;;;;2605795;54;19954;-78
2023/10/05 10:01:20;;;;;;;;;;;16.30;99.90;;;;;;2605089;39;20739;-76
2023/10/05 10:03:52;;;;;;;;;;;16.30;99.90;;;;;;2605051;47;19946;-74
2023/10/05 10:06:28;;;;;;;;;;;16.30;99.90;;;;;;2605754;39;20357;-76
2023/10/05 10:09:09;;;;;;;;;;;16.30;99.90;;;;;;2607363;54;19946;-72
2023/10/05 10:11:39;;;;;;;;;;;16.40;99.90;;;;;;2610954;54;20493;-73
2023/10/05 10:14:15;;;;;;;;;;;16.40;99.90;;;;;;2611315;39;20299;-73
2023/10/05 10:16:47;;;;;;;;;;;16.50;99.90;;;;;;2611516;46;19962;-73
2023/10/05 10:19:23;;;;;;;;;;;16.40;99.90;;;;;;2612379;54;19955;-72
2023/10/05 10:22:00;;;;;;;;;;;16.40;99.90;;;;;;2611299;54;19947;-72
2023/10/05 10:24:33;;;;;;;;;;;16.40;99.90;;;;;;2613393;54;19947;-71
2023/10/05 10:27:11;;;;;;;;;;;16.40;99.90;;;;;;2611691;54;19951;-73
2023/10/05 10:29:45;;;;;;;;;;;16.40;99.90;;;;;;2612801;47;19950;-73
2023/10/05 10:32:18;;;;;;;;;;;16.40;99.90;;;;;;2610593;47;20091;-73
2023/10/05 10:34:55;;;;;;;;;;;16.40;99.90;;;;;;2610814;54;19947;-72
2023/10/05 10:37:48;;;;;;;;;;;16.40;99.90;;;;;;2611023;54;19955;-74
2023/10/05 10:40:30;;;;;;;;;;;16.40;99.90;;;;;;2611176;47;19951;-74
2023/10/05 10:43:06;;;;;;;;;;;16.40;99.90;;;;;;2612073;54;20095;-75
2023/10/05 10:45:41;;;;;;;;;;;16.30;99.90;;;;;;2611624;54;20071;-78
2023/10/05 10:48:14;;;;;;;;;;;16.30;99.90;;;;;;2613322;54;20309;-77
2023/10/05 10:50:45;;;;;;;;;;;16.30;99.90;;;;;;2613550;54;19947;-76
2023/10/05 10:53:16;;;;;;;;;;;16.30;99.90;;;;;;2613715;54;19947;-77
2023/10/05 10:55:51;;;;;;;;;;;16.40;99.90;;;;;;2614287;47;19939;-77
2023/10/05 10:58:25;;;;;;;;;;;16.40;99.90;;;;;;2615148;47;20481;-77
2023/10/05 11:00:56;;;;;;;;;;;16.40;99.90;;;;;;2613252;54;20532;-74
2023/10/05 11:03:27;;;;;;;;;;;16.40;99.90;;;;;;2612847;54;19946;-75
2023/10/05 11:05:54;;;;;;;;;;;16.30;99.90;;;;;;2612943;54;19946;-73
2023/10/05 11:08:24;;;;;;;;;;;16.30;99.90;;;;;;2613175;54;19946;-73
2023/10/05 11:11:09;;;;;;;;;;;16.30;99.90;;;;;;2613076;54;20074;-73
2023/10/05 11:13:43;;;;;;;;;;;16.40;99.90;;;;;;2613756;54;19947;-74
2023/10/05 11:16:15;;;;;;;;;;;16.40;99.90;;;;;;2612873;54;20079;-72
2023/10/05 11:18:57;;;;;;;;;;;16.40;99.90;;;;;;2612366;54;19946;-72
2023/10/05 11:21:33;;;;;;;;;;;16.40;99.90;;;;;;2612442;54;19976;-71
2023/10/05 11:24:06;;;;;;;;;;;16.40;99.90;;;;;;2613028;54;20359;-73
2023/10/05 11:27:05;;;;;;;;;;;16.50;99.90;;;;;;2612562;54;20030;-74
2023/10/05 11:29:42;;;;;;;;;;;16.50;99.90;;;;;;2613444;47;19955;-73
2023/10/05 11:32:20;;;;;;;;;;;16.60;99.90;;;;;;2613113;46;19947;-73
2023/10/05 11:35:13;;;;;;;;;;;16.60;99.90;;;;;;2613010;47;20420;-73
2023/10/05 11:37:58;;;;;;;;;;;16.70;99.90;;;;;;2613709;47;19947;-74
2023/10/05 11:40:31;;;;;;;;;;;16.70;99.90;;;;;;2613024;47;20017;-73
2023/10/05 11:43:13;;;;;;;;;;;16.70;99.90;;;;;;2618757;47;19951;-77
2023/10/05 11:45:57;;;;;;;;;;;16.70;99.90;;;;;;2624211;54;19970;-75
2023/10/05 11:48:40;;;;;;;;;;;16.80;99.90;;;;;;2614809;54;19986;-75
2023/10/05 11:51:13;;;;;;;;;;;16.80;99.90;;;;;;2614128;46;19946;-75
2023/10/05 11:53:43;;;;;;;;;;;16.80;99.90;;;;;;2614132;54;19947;-75
2023/10/05 11:56:15;;;;;;;;;;;16.80;99.90;;;;;;2614068;54;20059;-75
2023/10/05 11:58:48;;;;;;;;;;;16.80;99.90;;;;;;2615267;47;20003;-75
2023/10/05 12:01:20;;;;;;;;;;;16.80;99.90;;;;;;2617467;39;20663;-75
2023/10/05 12:03:50;;;;;;;;;;;16.70;99.90;;;;;;2614509;47;19946;-76
2023/10/05 12:06:23;;;;;;;;;;;16.80;99.90;;;;;;2615202;54;19950;-78
2023/10/05 12:09:00;;;;;;;;;;;16.70;99.90;;;;;;2618549;39;20358;-79
2023/10/05 12:11:33;;;;;;;;;;;16.80;99.90;;;;;;2614295;48;19946;-76
2023/10/05 12:14:06;;;;;;;;;;;16.80;99.90;;;;;;2610672;54;19951;-74
2023/10/05 12:16:38;;;;;;;;;;;16.80;99.90;;;;;;2612960;54;19938;-76
2023/10/05 12:19:27;;;;;;;;;;;16.70;99.90;;;;;;2618238;39;20006;-77
2023/10/05 12:21:59;;;;;;;;;;;16.80;99.90;;;;;;2616540;54;19965;-76
2023/10/05 12:24:30;;;;;;;;;;;16.80;99.90;;;;;;2612997;54;19946;-76
2023/10/05 12:27:13;;;;;;;;;;;16.80;99.90;;;;;;2613566;47;20216;-77
2023/10/05 12:29:46;;;;;;;;;;;16.80;99.90;;;;;;2611197;47;19947;-75
2023/10/05 12:32:16;;;;;;;;;;;16.80;99.90;;;;;;2614209;54;19946;-75
2023/10/05 12:34:48;;;;;;;;;;;16.80;99.90;;;;;;2615872;54;19953;-72
2023/10/05 12:37:21;;;;;;;;;;;16.80;99.90;;;;;;2615481;47;19962;-73
2023/10/05 12:39:51;;;;;;;;;;;16.80;99.90;;;;;;2614913;47;19947;-74
2023/10/05 12:42:21;;;;;;;;;;;16.90;99.90;;;;;;2614924;54;19954;-74
2023/10/05 12:44:54;;;;;;;;;;;16.80;99.90;;;;;;2616717;39;20247;-75
2023/10/05 12:47:23;;;;;;;;;;;16.90;99.90;;;;;;2619820;50;20007;-74
2023/10/05 12:49:53;;;;;;;;;;;16.90;99.90;;;;;;2617366;54;19950;-75
2023/10/05 12:52:25;;;;;;;;;;;16.90;99.90;;;;;;2623900;54;19967;-81
2023/10/05 12:54:56;;;;;;;;;;;16.90;99.90;;;;;;2630363;39;20370;-79
2023/10/05 12:57:26;;;;;;;;;;;16.90;99.90;;;;;;2630447;46;19966;-80
2023/10/05 12:59:58;;;;;;;;;;;16.90;99.90;;;;;;2630461;47;19951;-79
2023/10/05 13:02:28;;;;;;;;;;;16.90;99.90;;;;;;2630466;47;19942;-79
2023/10/05 13:04:59;;;;;;;;;;;16.90;99.90;;;;;;2630487;54;20015;-79
2023/10/05 13:07:50;;;;;;;;;;;16.90;99.90;;;;;;2630510;46;20653;-82
2023/10/05 13:10:31;;;;;;;;;;;16.90;99.90;;;;;;2626748;47;19943;-74
2023/10/05 13:13:09;;;;;;;;;;;16.80;99.90;;;;;;2616046;47;19995;-74
2023/10/05 13:15:42;;;;;;;;;;;16.80;99.90;;;;;;2617853;39;20430;-75
2023/10/05 13:18:18;;;;;;;;;;;16.80;99.90;;;;;;2618585;54;19947;-78
2023/10/05 13:20:50;;;;;;;;;;;16.80;99.90;;;;;;2621669;47;19994;-77
2023/10/05 13:23:21;;;;;;;;;;;16.80;99.90;;;;;;2623095;47;19991;-77
2023/10/05 13:25:52;;;;;;;;;;;16.90;99.90;;;;;;2620764;47;19945;-78
2023/10/05 13:28:24;;;;;;;;;;;16.90;99.90;;;;;;2619811;47;19953;-76
2023/10/05 13:30:57;;;;;;;;;;;16.90;99.90;;;;;;2620115;47;19951;-77
2023/10/05 13:33:34;;;;;;;;;;;16.90;99.90;;;;;;2620214;47;20437;-78
2023/10/05 13:36:07;;;;;;;;;;;17.00;99.90;;;;;;2619632;54;19946;-77
2023/10/05 13:38:37;;;;;;;;;;;17.00;99.90;;;;;;2619515;47;19954;-78
2023/10/05 13:41:18;;;;;;;;;;;17.00;99.90;;;;;;2616628;47;19939;-78
2023/10/05 13:43:49;;;;;;;;;;;17.10;99.90;;;;;;2618276;54;19939;-77
2023/10/05 13:46:22;;;;;;;;;;;17.10;99.90;;;;;;2619540;47;19938;-77
2023/10/05 13:48:53;;;;;;;;;;;17.10;99.90;;;;;;2618168;47;20067;-77
2023/10/05 13:51:34;;;;;;;;;;;17.20;99.90;;;;;;2620771;47;19927;-79
2023/10/05 13:56:43;;;;;;;;;;;17.20;99.90;;;;;;2613715;54;19971;-78
2023/10/05 13:59:17;;;;;;;;;;;17.30;99.90;;;;;;2616091;54;19946;-75
2023/10/05 14:01:52;;;;;;;;;;;17.30;99.90;;;;;;2616400;54;19946;-74
2023/10/05 14:04:25;;;;;;;;;;;17.30;99.90;;;;;;2616626;47;20083;-76
2023/10/05 14:06:56;;;;;;;;;;;17.30;99.90;;;;;;2615915;47;19947;-76
2023/10/05 14:09:27;;;;;;;;;;;17.40;99.90;;;;;;2616435;47;19954;-75
2023/10/05 14:11:57;;;;;;;;;;;17.40;99.90;;;;;;2621703;54;19999;-79
2023/10/05 14:14:28;;;;;;;;;;;17.30;99.90;;;;;;2623322;47;19950;-79
2023/10/05 14:17:06;;;;;;;;;;;17.40;99.90;;;;;;2621830;54;19946;-74
2023/10/05 14:19:36;;;;;;;;;;;17.30;99.90;;;;;;2615073;47;19955;-77
2023/10/05 14:22:08;;;;;;;;;;;17.30;99.90;;;;;;2614190;47;19939;-76
2023/10/05 14:24:40;;;;;;;;;;;17.30;99.90;;;;;;2616919;39;20334;-74
2023/10/05 14:27:10;;;;;;;;;;;17.30;99.90;;;;;;2615989;47;20461;-74
2023/10/05 14:29:44;;;;;;;;;;;17.30;99.90;;;;;;2616638;54;19938;-74
2023/10/05 14:32:19;;;;;;;;;;;17.30;99.90;;;;;;2616866;47;20460;-73
2023/10/05 14:34:52;;;;;;;;;;;17.30;99.90;;;;;;2616968;39;20349;-73
2023/10/05 14:37:25;;;;;;;;;;;16.80;99.90;;;;;;2616836;54;19947;-75
2023/10/05 14:39:56;;;;;;;;;;;17.40;99.90;;;;;;2616942;47;19950;-74
2023/10/05 14:42:26;;;;;;;;;;;18.00;99.90;;;;;;2616912;47;19953;-74
2023/10/05 14:44:56;;;;;;;;;;;18.80;99.90;;;;;;2616417;47;19953;-73
2023/10/05 14:47:28;;;;;;;;;;;19.40;99.90;;;;;;2617698;39;20337;-74
2023/10/05 14:49:58;;;;;;;;;;;20.10;99.90;;;;;;2618642;47;19955;-79
2023/10/05 14:52:28;;;;;;;;;;;20.90;99.90;;;;;;2618516;47;19950;-75
2023/10/05 14:54:59;;;;;;;;;;;21.30;99.90;;;;;;2617028;52;19945;-78
2023/10/05 14:57:29;;;;;;;;;;;21.30;99.90;;;;;;2617573;47;19946;-75
2023/10/05 14:59:59;;;;;;;;;;;21.20;99.90;;;;;;2616992;46;19946;-74
2023/10/05 15:02:33;;;;;;;;;;;20.90;99.90;;;;;;2616066;54;20006;-74
2023/10/05 15:05:03;;;;;;;;;;;20.40;99.90;;;;;;2617161;54;19939;-73
2023/10/05 15:07:32;;;;;;;;;;;20.00;99.90;;;;;;2616402;54;19947;-76
2023/10/05 15:10:03;;;;;;;;;;;19.70;99.90;;;;;;2618065;39;20311;-76
2023/10/05 15:12:33;;;;;;;;;;;19.50;99.90;;;;;;2619853;47;19951;-77
2023/10/05 15:15:03;;;;;;;;;;;19.40;99.90;;;;;;2624457;47;19977;-82
2023/10/05 15:17:36;;;;;;;;;;;19.20;99.90;;;;;;2630174;54;19935;-81
2023/10/05 15:20:10;;;;;;;;;;;19.20;99.90;;;;;;2629874;54;19934;-81
2023/10/05 15:22:42;;;;;;;;;;;19.20;99.90;;;;;;2626577;54;19954;-76
2023/10/05 15:25:13;;;;;;;;;;;19.40;99.90;;;;;;2618631;47;19950;-77
2023/10/05 15:27:43;;;;;;;;;;;19.80;99.90;;;;;;2618685;47;19962;-76
2023/10/05 15:30:15;;;;;;;;;;;20.30;99.90;;;;;;2618785;54;20441;-77
2023/10/05 15:32:49;;;;;;;;;;;20.60;99.90;;;;;;2621355;46;20430;-77
2023/10/05 15:35:20;;;;;;;;;;;21.00;99.90;;;;;;2625830;47;19939;-77
2023/10/05 15:37:50;;;;;;;;;;;21.30;99.90;;;;;;2622614;54;19950;-76
2023/10/05 15:40:21;;;;;;;;;;;21.40;99.90;;;;;;2620963;31;20439;-76
2023/10/05 15:42:51;;;;;;;;;;;21.20;99.90;;;;;;2619462;47;19939;-74
2023/10/05 15:45:22;;;;;;;;;;;21.00;99.90;;;;;;2618134;54;19957;-76
2023/10/05 15:47:55;;;;;;;;;;;20.70;99.90;;;;;;2617969;47;19965;-77
2023/10/05 15:50:25;;;;;;;;;;;20.30;99.90;;;;;;2617826;47;20037;-74
2023/10/05 15:52:56;;;;;;;;;;;20.10;99.90;;;;;;2618928;54;19947;-77
2023/10/05 15:55:26;;;;;;;;;;;19.80;99.90;;;;;;2618667;47;20022;-76
2023/10/05 15:57:56;;;;;;;;;;;19.60;99.90;;;;;;2617606;47;20105;-76
2023/10/05 16:00:26;;;;;;;;;;;19.40;99.90;;;;;;2617013;47;20488;-77
2023/10/05 16:02:59;;;;;;;;;;;19.30;99.90;;;;;;2618134;46;19970;-76
2023/10/05 16:05:30;;;;;;;;;;;19.10;99.90;;;;;;2619604;54;19946;-76
2023/10/05 16:08:03;;;;;;;;;;;19.00;99.90;;;;;;2621716;47;19947;-77
2023/10/05 16:10:33;;;;;;;;;;;18.90;99.90;;;;;;2622101;47;19973;-79
2023/10/05 16:13:07;;;;;;;;;;;18.80;99.90;;;;;;2622292;47;19954;-77
2023/10/05 16:15:38;;;;;;;;;;;18.60;99.90;;;;;;2620247;47;20036;-76
2023/10/05 16:18:12;;;;;;;;;;;18.50;99.90;;;;;;2619890;54;19954;-75
2023/10/05 16:20:41;;;;;;;;;;;18.50;99.90;;;;;;2617877;47;20075;-74
2023/10/05 16:23:11;;;;;;;;;;;18.30;99.90;;;;;;2616945;47;20460;-74
2023/10/05 16:25:42;;;;;;;;;;;18.30;99.90;;;;;;2619152;39;20356;-75
2023/10/05 16:28:11;;;;;;;;;;;18.20;99.90;;;;;;2617484;47;19986;-76
2023/10/05 16:30:41;;;;;;;;;;;18.10;99.90;;;;;;2617398;54;19939;-75
2023/10/05 16:33:14;;;;;;;;;;;18.00;99.90;;;;;;2616181;47;19946;-74
2023/10/05 16:35:43;;;;;;;;;;;17.90;99.90;;;;;;2617822;47;19993;-75
2023/10/05 16:38:14;;;;;;;;;;;17.80;99.90;;;;;;2617316;54;19939;-76
2023/10/05 16:40:44;;;;;;;;;;;17.70;99.90;;;;;;2618202;54;19951;-75
2023/10/05 16:43:14;;;;;;;;;;;17.60;99.90;;;;;;2617780;54;19975;-76
2023/10/05 16:45:46;;;;;;;;;;;17.50;99.90;;;;;;2612482;47;20019;-75